sensor_id;sensor_type;location;lat;lon;timestamp;temperature;humidity
68556;HTU21D;55544;51.032;5.866;2023-04-03T00:01:29;5.97;67.33
68556;HTU21D;55544;51.032;5.866;2023-04-03T00:03:55;5.97;67.27
68556;HTU21D;55544;51.032;5.866;2023-04-03T00:06:22;5.96;67.17
68556;HTU21D;55544;51.032;5.866;2023-04-03T00:08:49;5.95;67.25
68556;HTU21D;55544;51.032;5.866;2023-04-03T00:11:14;5.95;67.09
68556;HTU21D;55544;51.032;5.866;2023-04-03T00:13:41;5.94;66.92
68556;HTU21D;55544;51.032;5.866;2023-04-03T00:16:09;5.92;67.05
68556;HTU21D;55544;51.032;5.866;2023-04-03T00:18:36;5.92;67.14
68556;HTU21D;55544;51.032;5.866;2023-04-03T00:21:02;5.91;67.14
68556;HTU21D;55544;51.032;5.866;2023-04-03T00:23:28;5.90;67.20
68556;HTU21D;55544;51.032;5.866;2023-04-03T00:25:54;5.89;67.04
68556;HTU21D;55544;51.032;5.866;2023-04-03T00:28:20;5.87;67.04
68556;HTU21D;55544;51.032;5.866;2023-04-03T00:30:48;5.86;67.19
68556;HTU21D;55544;51.032;5.866;2023-04-03T00:33:14;5.84;67.21
68556;HTU21D;55544;51.032;5.866;2023-04-03T00:35:41;5.82;67.19
68556;HTU21D;55544;51.032;5.866;2023-04-03T00:38:07;5.79;67.16
68556;HTU21D;55544;51.032;5.866;2023-04-03T00:40:36;5.76;67.17
68556;HTU21D;55544;51.032;5.866;2023-04-03T00:43:18;5.74;67.24
68556;HTU21D;55544;51.032;5.866;2023-04-03T00:45:48;5.71;67.25
68556;HTU21D;55544;51.032;5.866;2023-04-03T00:48:20;5.69;67.26
68556;HTU21D;55544;51.032;5.866;2023-04-03T00:50:47;5.68;67.33
68556;HTU21D;55544;51.032;5.866;2023-04-03T00:53:29;5.67;67.49
68556;HTU21D;55544;51.032;5.866;2023-04-03T00:55:57;5.66;67.49
68556;HTU21D;55544;51.032;5.866;2023-04-03T00:58:33;5.64;67.43
68556;HTU21D;55544;51.032;5.866;2023-04-03T01:01:04;5.61;67.45
68556;HTU21D;55544;51.032;5.866;2023-04-03T01:03:31;5.61;67.46
68556;HTU21D;55544;51.032;5.866;2023-04-03T01:05:58;5.60;67.36
68556;HTU21D;55544;51.032;5.866;2023-04-03T01:08:24;5.57;67.33
68556;HTU21D;55544;51.032;5.866;2023-04-03T01:10:50;5.54;67.47
68556;HTU21D;55544;51.032;5.866;2023-04-03T01:13:23;5.54;67.53
68556;HTU21D;55544;51.032;5.866;2023-04-03T01:15:50;5.53;67.33
68556;HTU21D;55544;51.032;5.866;2023-04-03T01:18:15;5.51;67.42
68556;HTU21D;55544;51.032;5.866;2023-04-03T01:28:07;5.39;67.23
68556;HTU21D;55544;51.032;5.866;2023-04-03T01:30:44;5.32;67.42
68556;HTU21D;55544;51.032;5.866;2023-04-03T01:33:11;5.30;67.43
68556;HTU21D;55544;51.032;5.866;2023-04-03T01:35:37;5.26;67.43
68556;HTU21D;55544;51.032;5.866;2023-04-03T01:38:03;5.25;67.51
68556;HTU21D;55544;51.032;5.866;2023-04-03T01:40:28;5.24;67.35
68556;HTU21D;55544;51.032;5.866;2023-04-03T01:42:55;5.22;67.43
68556;HTU21D;55544;51.032;5.866;2023-04-03T01:45:20;5.19;67.88
68556;HTU21D;55544;51.032;5.866;2023-04-03T01:47:46;5.15;68.28
68556;HTU21D;55544;51.032;5.866;2023-04-03T01:50:12;5.13;68.20
68556;HTU21D;55544;51.032;5.866;2023-04-03T01:52:38;5.09;68.48
68556;HTU21D;55544;51.032;5.866;2023-04-03T01:55:04;5.02;68.59
68556;HTU21D;55544;51.032;5.866;2023-04-03T01:57:30;4.97;68.46
68556;HTU21D;55544;51.032;5.866;2023-04-03T01:59:56;4.87;68.52
68556;HTU21D;55544;51.032;5.866;2023-04-03T02:02:21;4.82;68.89
68556;HTU21D;55544;51.032;5.866;2023-04-03T02:04:47;4.81;68.81
68556;HTU21D;55544;51.032;5.866;2023-04-03T02:07:13;4.82;68.43
68556;HTU21D;55544;51.032;5.866;2023-04-03T02:09:39;4.83;67.98
68556;HTU21D;55544;51.032;5.866;2023-04-03T02:12:05;4.84;68.04
68556;HTU21D;55544;51.032;5.866;2023-04-03T02:14:31;4.84;68.66
68556;HTU21D;55544;51.032;5.866;2023-04-03T02:16:57;4.81;69.20
68556;HTU21D;55544;51.032;5.866;2023-04-03T02:19:23;4.77;69.54
68556;HTU21D;55544;51.032;5.866;2023-04-03T02:21:49;4.64;70.27
68556;HTU21D;55544;51.032;5.866;2023-04-03T02:24:15;4.58;70.32
68556;HTU21D;55544;51.032;5.866;2023-04-03T02:26:40;4.56;70.28
68556;HTU21D;55544;51.032;5.866;2023-04-03T02:29:06;4.53;70.23
68556;HTU21D;55544;51.032;5.866;2023-04-03T02:31:31;4.41;70.57
68556;HTU21D;55544;51.032;5.866;2023-04-03T02:33:59;4.28;71.44
68556;HTU21D;55544;51.032;5.866;2023-04-03T02:36:25;4.17;72.03
68556;HTU21D;55544;51.032;5.866;2023-04-03T02:38:55;4.14;72.82
68556;HTU21D;55544;51.032;5.866;2023-04-03T02:41:21;4.12;73.19
68556;HTU21D;55544;51.032;5.866;2023-04-03T02:43:49;4.06;73.44
68556;HTU21D;55544;51.032;5.866;2023-04-03T02:46:15;3.99;73.67
68556;HTU21D;55544;51.032;5.866;2023-04-03T02:48:41;3.94;73.62
68556;HTU21D;55544;51.032;5.866;2023-04-03T02:51:07;3.99;73.15
68556;HTU21D;55544;51.032;5.866;2023-04-03T02:53:33;4.05;72.41
68556;HTU21D;55544;51.032;5.866;2023-04-03T02:56:05;4.10;71.81
68556;HTU21D;55544;51.032;5.866;2023-04-03T02:58:30;4.16;71.45
68556;HTU21D;55544;51.032;5.866;2023-04-03T03:00:58;4.17;71.43
68556;HTU21D;55544;51.032;5.866;2023-04-03T03:03:24;4.16;71.27
68556;HTU21D;55544;51.032;5.866;2023-04-03T03:05:49;4.15;71.50
68556;HTU21D;55544;51.032;5.866;2023-04-03T03:08:15;4.13;72.31
68556;HTU21D;55544;51.032;5.866;2023-04-03T03:10:41;4.07;72.61
68556;HTU21D;55544;51.032;5.866;2023-04-03T03:13:07;3.97;73.07
68556;HTU21D;55544;51.032;5.866;2023-04-03T03:15:32;3.89;73.68
68556;HTU21D;55544;51.032;5.866;2023-04-03T03:17:58;3.91;73.44
68556;HTU21D;55544;51.032;5.866;2023-04-03T03:20:25;3.98;73.00
68556;HTU21D;55544;51.032;5.866;2023-04-03T03:22:51;3.99;72.96
68556;HTU21D;55544;51.032;5.866;2023-04-03T03:25:16;3.99;73.02
68556;HTU21D;55544;51.032;5.866;2023-04-03T03:27:42;3.99;72.89
68556;HTU21D;55544;51.032;5.866;2023-04-03T03:30:08;4.01;72.75
68556;HTU21D;55544;51.032;5.866;2023-04-03T03:32:33;4.04;72.52
68556;HTU21D;55544;51.032;5.866;2023-04-03T03:35:01;4.06;72.14
68556;HTU21D;55544;51.032;5.866;2023-04-03T03:37:26;4.07;71.80
68556;HTU21D;55544;51.032;5.866;2023-04-03T03:39:53;4.07;71.17
68556;HTU21D;55544;51.032;5.866;2023-04-03T03:42:18;4.05;70.64
68556;HTU21D;55544;51.032;5.866;2023-04-03T03:44:44;4.00;70.71
68556;HTU21D;55544;51.032;5.866;2023-04-03T03:47:10;3.95;70.84
68556;HTU21D;55544;51.032;5.866;2023-04-03T03:49:37;3.88;71.22
68556;HTU21D;55544;51.032;5.866;2023-04-03T03:52:02;3.85;71.26
68556;HTU21D;55544;51.032;5.866;2023-04-03T03:54:28;3.82;71.27
68556;HTU21D;55544;51.032;5.866;2023-04-03T03:56:54;3.76;71.69
68556;HTU21D;55544;51.032;5.866;2023-04-03T03:59:22;3.82;71.70
68556;HTU21D;55544;51.032;5.866;2023-04-03T04:01:48;3.77;72.02
68556;HTU21D;55544;51.032;5.866;2023-04-03T04:04:14;3.64;72.64
68556;HTU21D;55544;51.032;5.866;2023-04-03T04:06:40;3.61;72.99
68556;HTU21D;55544;51.032;5.866;2023-04-03T04:09:09;3.63;72.93
68556;HTU21D;55544;51.032;5.866;2023-04-03T04:11:34;3.63;72.56
68556;HTU21D;55544;51.032;5.866;2023-04-03T04:14:01;3.61;72.83
68556;HTU21D;55544;51.032;5.866;2023-04-03T04:16:29;3.63;72.81
68556;HTU21D;55544;51.032;5.866;2023-04-03T04:18:58;3.67;72.75
68556;HTU21D;55544;51.032;5.866;2023-04-03T04:21:24;3.70;72.34
68556;HTU21D;55544;51.032;5.866;2023-04-03T04:23:52;3.72;72.22
68556;HTU21D;55544;51.032;5.866;2023-04-03T04:26:18;3.73;72.22
68556;HTU21D;55544;51.032;5.866;2023-04-03T04:28:43;3.73;72.03
68556;HTU21D;55544;51.032;5.866;2023-04-03T04:31:09;3.76;72.11
68556;HTU21D;55544;51.032;5.866;2023-04-03T04:33:36;3.76;72.13
68556;HTU21D;55544;51.032;5.866;2023-04-03T04:36:03;3.75;71.99
68556;HTU21D;55544;51.032;5.866;2023-04-03T04:38:29;3.74;71.77
68556;HTU21D;55544;51.032;5.866;2023-04-03T04:40:56;3.75;71.45
68556;HTU21D;55544;51.032;5.866;2023-04-03T04:43:22;3.74;71.13
68556;HTU21D;55544;51.032;5.866;2023-04-03T04:46:00;3.72;71.09
68556;HTU21D;55544;51.032;5.866;2023-04-03T04:48:26;3.69;71.33
68556;HTU21D;55544;51.032;5.866;2023-04-03T04:50:52;3.68;71.74
68556;HTU21D;55544;51.032;5.866;2023-04-03T04:53:18;3.65;72.00
68556;HTU21D;55544;51.032;5.866;2023-04-03T04:55:43;3.63;71.99
68556;HTU21D;55544;51.032;5.866;2023-04-03T04:58:10;3.63;72.08
68556;HTU21D;55544;51.032;5.866;2023-04-03T05:00:35;3.62;72.10
68556;HTU21D;55544;51.032;5.866;2023-04-03T05:03:02;3.62;72.16
68556;HTU21D;55544;51.032;5.866;2023-04-03T05:05:28;3.61;72.36
68556;HTU21D;55544;51.032;5.866;2023-04-03T05:07:54;3.60;72.44
68556;HTU21D;55544;51.032;5.866;2023-04-03T05:10:20;3.62;72.33
68556;HTU21D;55544;51.032;5.866;2023-04-03T05:12:46;3.62;72.18
68556;HTU21D;55544;51.032;5.866;2023-04-03T05:15:11;3.63;72.15
68556;HTU21D;55544;51.032;5.866;2023-04-03T05:17:37;3.63;72.30
68556;HTU21D;55544;51.032;5.866;2023-04-03T05:20:06;3.61;72.54
68556;HTU21D;55544;51.032;5.866;2023-04-03T05:22:33;3.61;72.74
68556;HTU21D;55544;51.032;5.866;2023-04-03T05:25:05;3.63;72.87
68556;HTU21D;55544;51.032;5.866;2023-04-03T05:27:31;3.65;72.84
68556;HTU21D;55544;51.032;5.866;2023-04-03T05:29:58;3.69;72.64
68556;HTU21D;55544;51.032;5.866;2023-04-03T05:32:25;3.72;72.50
68556;HTU21D;55544;51.032;5.866;2023-04-03T05:35:02;3.73;72.35
68556;HTU21D;55544;51.032;5.866;2023-04-03T05:37:28;3.75;72.31
68556;HTU21D;55544;51.032;5.866;2023-04-03T05:39:54;3.75;72.24
68556;HTU21D;55544;51.032;5.866;2023-04-03T05:42:21;3.77;72.10
68556;HTU21D;55544;51.032;5.866;2023-04-03T05:44:47;3.78;72.36
68556;HTU21D;55544;51.032;5.866;2023-04-03T05:47:13;3.80;72.60
68556;HTU21D;55544;51.032;5.866;2023-04-03T05:49:39;3.82;72.52
68556;HTU21D;55544;51.032;5.866;2023-04-03T05:52:28;3.82;72.48
68556;HTU21D;55544;51.032;5.866;2023-04-03T05:54:55;3.79;72.57
68556;HTU21D;55544;51.032;5.866;2023-04-03T05:57:24;3.78;72.63
68556;HTU21D;55544;51.032;5.866;2023-04-03T05:59:50;3.77;73.01
68556;HTU21D;55544;51.032;5.866;2023-04-03T06:02:20;3.74;73.10
68556;HTU21D;55544;51.032;5.866;2023-04-03T06:04:47;3.72;73.25
68556;HTU21D;55544;51.032;5.866;2023-04-03T06:07:16;3.70;73.68
68556;HTU21D;55544;51.032;5.866;2023-04-03T06:09:43;3.67;73.84
68556;HTU21D;55544;51.032;5.866;2023-04-03T06:12:09;3.64;74.17
68556;HTU21D;55544;51.032;5.866;2023-04-03T06:14:35;3.64;74.61
68556;HTU21D;55544;51.032;5.866;2023-04-03T06:17:01;3.68;74.77
68556;HTU21D;55544;51.032;5.866;2023-04-03T06:19:28;3.67;74.89
68556;HTU21D;55544;51.032;5.866;2023-04-03T06:21:55;3.70;75.09
68556;HTU21D;55544;51.032;5.866;2023-04-03T06:24:23;3.70;75.16
68556;HTU21D;55544;51.032;5.866;2023-04-03T06:26:51;3.71;75.37
68556;HTU21D;55544;51.032;5.866;2023-04-03T06:29:20;3.78;75.60
68556;HTU21D;55544;51.032;5.866;2023-04-03T06:31:46;3.85;75.50
68556;HTU21D;55544;51.032;5.866;2023-04-03T06:34:12;3.89;75.38
68556;HTU21D;55544;51.032;5.866;2023-04-03T06:36:39;3.94;75.43
68556;HTU21D;55544;51.032;5.866;2023-04-03T06:39:05;4.02;75.50
68556;HTU21D;55544;51.032;5.866;2023-04-03T06:41:32;4.08;75.47
68556;HTU21D;55544;51.032;5.866;2023-04-03T06:43:59;4.17;75.40
68556;HTU21D;55544;51.032;5.866;2023-04-03T06:46:26;4.23;75.27
68556;HTU21D;55544;51.032;5.866;2023-04-03T06:48:52;4.31;75.15
68556;HTU21D;55544;51.032;5.866;2023-04-03T06:53:46;4.42;75.21
68556;HTU21D;55544;51.032;5.866;2023-04-03T06:56:12;4.47;75.10
68556;HTU21D;55544;51.032;5.866;2023-04-03T06:58:38;4.53;74.80
68556;HTU21D;55544;51.032;5.866;2023-04-03T07:01:04;4.58;74.76
68556;HTU21D;55544;51.032;5.866;2023-04-03T07:03:30;4.67;74.94
68556;HTU21D;55544;51.032;5.866;2023-04-03T07:05:56;4.73;74.76
68556;HTU21D;55544;51.032;5.866;2023-04-03T07:08:22;4.81;74.48
68556;HTU21D;55544;51.032;5.866;2023-04-03T07:10:49;4.92;74.19
68556;HTU21D;55544;51.032;5.866;2023-04-03T07:13:15;5.01;74.11
68556;HTU21D;55544;51.032;5.866;2023-04-03T07:15:41;5.11;73.61
68556;HTU21D;55544;51.032;5.866;2023-04-03T07:18:07;5.22;73.41
68556;HTU21D;55544;51.032;5.866;2023-04-03T07:20:33;5.30;72.86
68556;HTU21D;55544;51.032;5.866;2023-04-03T07:22:59;5.37;72.39
68556;HTU21D;55544;51.032;5.866;2023-04-03T07:25:25;5.45;72.32
68556;HTU21D;55544;51.032;5.866;2023-04-03T07:27:51;5.50;72.32
68556;HTU21D;55544;51.032;5.866;2023-04-03T07:30:20;5.60;72.61
68556;HTU21D;55544;51.032;5.866;2023-04-03T07:32:46;5.71;72.35
68556;HTU21D;55544;51.032;5.866;2023-04-03T07:35:12;5.79;71.76
68556;HTU21D;55544;51.032;5.866;2023-04-03T07:37:38;5.90;71.33
68556;HTU21D;55544;51.032;5.866;2023-04-03T07:40:05;5.99;71.24
68556;HTU21D;55544;51.032;5.866;2023-04-03T07:42:31;6.08;70.94
68556;HTU21D;55544;51.032;5.866;2023-04-03T07:44:56;6.17;70.39
68556;HTU21D;55544;51.032;5.866;2023-04-03T07:47:22;6.30;70.49
68556;HTU21D;55544;51.032;5.866;2023-04-03T07:49:48;6.45;70.49
68556;HTU21D;55544;51.032;5.866;2023-04-03T07:52:14;6.57;69.36
68556;HTU21D;55544;51.032;5.866;2023-04-03T07:54:41;6.68;68.72
68556;HTU21D;55544;51.032;5.866;2023-04-03T07:57:07;6.79;68.23
68556;HTU21D;55544;51.032;5.866;2023-04-03T07:59:33;6.90;67.58
68556;HTU21D;55544;51.032;5.866;2023-04-03T08:01:59;7.02;67.52
68556;HTU21D;55544;51.032;5.866;2023-04-03T08:04:25;7.16;66.65
68556;HTU21D;55544;51.032;5.866;2023-04-03T08:06:52;7.28;66.56
68556;HTU21D;55544;51.032;5.866;2023-04-03T08:09:18;7.42;66.11
68556;HTU21D;55544;51.032;5.866;2023-04-03T08:11:45;7.53;65.77
68556;HTU21D;55544;51.032;5.866;2023-04-03T08:14:12;7.61;65.46
68556;HTU21D;55544;51.032;5.866;2023-04-03T08:16:43;7.71;65.21
68556;HTU21D;55544;51.032;5.866;2023-04-03T08:19:09;7.78;64.55
68556;HTU21D;55544;51.032;5.866;2023-04-03T08:21:36;7.88;64.72
68556;HTU21D;55544;51.032;5.866;2023-04-03T08:24:02;8.01;63.66
68556;HTU21D;55544;51.032;5.866;2023-04-03T08:26:28;8.12;63.42
68556;HTU21D;55544;51.032;5.866;2023-04-03T08:28:54;8.22;62.78
68556;HTU21D;55544;51.032;5.866;2023-04-03T08:31:20;8.36;62.55
68556;HTU21D;55544;51.032;5.866;2023-04-03T08:33:46;8.51;62.06
68556;HTU21D;55544;51.032;5.866;2023-04-03T08:36:30;8.65;61.73
68556;HTU21D;55544;51.032;5.866;2023-04-03T08:38:56;8.71;61.01
68556;HTU21D;55544;51.032;5.866;2023-04-03T08:44:37;8.86;60.81
68556;HTU21D;55544;51.032;5.866;2023-04-03T08:50:00;8.93;58.52
68556;HTU21D;55544;51.032;5.866;2023-04-03T08:52:42;8.95;58.22
68556;HTU21D;55544;51.032;5.866;2023-04-03T08:57:45;9.06;57.33
68556;HTU21D;55544;51.032;5.866;2023-04-03T09:00:18;9.12;57.00
68556;HTU21D;55544;51.032;5.866;2023-04-03T09:02:47;9.26;56.44
68556;HTU21D;55544;51.032;5.866;2023-04-03T09:05:34;9.41;55.87
68556;HTU21D;55544;51.032;5.866;2023-04-03T09:08:14;9.57;55.45
68556;HTU21D;55544;51.032;5.866;2023-04-03T09:10:42;9.72;54.39
68556;HTU21D;55544;51.032;5.866;2023-04-03T09:13:29;9.84;53.88
68556;HTU21D;55544;51.032;5.866;2023-04-03T09:15:57;9.95;53.53
68556;HTU21D;55544;51.032;5.866;2023-04-03T09:18:30;10.07;52.91
68556;HTU21D;55544;51.032;5.866;2023-04-03T09:21:17;10.12;53.14
68556;HTU21D;55544;51.032;5.866;2023-04-03T09:23:51;10.24;52.63
68556;HTU21D;55544;51.032;5.866;2023-04-03T09:28:55;10.38;52.60
68556;HTU21D;55544;51.032;5.866;2023-04-03T09:33:53;10.62;50.51
68556;HTU21D;55544;51.032;5.866;2023-04-03T09:36:46;10.73;49.90
68556;HTU21D;55544;51.032;5.866;2023-04-03T09:39:18;10.86;49.47
68556;HTU21D;55544;51.032;5.866;2023-04-03T09:44:36;11.12;48.55
68556;HTU21D;55544;51.032;5.866;2023-04-03T09:47:32;11.19;46.76
68556;HTU21D;55544;51.032;5.866;2023-04-03T09:50:19;11.25;46.56
68556;HTU21D;55544;51.032;5.866;2023-04-03T09:52:48;11.34;44.25
68556;HTU21D;55544;51.032;5.866;2023-04-03T09:55:18;11.39;44.25
68556;HTU21D;55544;51.032;5.866;2023-04-03T09:57:45;11.43;44.06
68556;HTU21D;55544;51.032;5.866;2023-04-03T10:00:34;11.44;44.95
68556;HTU21D;55544;51.032;5.866;2023-04-03T10:03:01;11.51;43.62
68556;HTU21D;55544;51.032;5.866;2023-04-03T10:05:37;11.59;42.84
68556;HTU21D;55544;51.032;5.866;2023-04-03T10:10:41;11.72;42.90
68556;HTU21D;55544;51.032;5.866;2023-04-03T10:13:19;11.76;43.24
68556;HTU21D;55544;51.032;5.866;2023-04-03T10:15:56;11.71;42.68
68556;HTU21D;55544;51.032;5.866;2023-04-03T10:21:05;11.93;42.16
68556;HTU21D;55544;51.032;5.866;2023-04-03T10:23:51;12.13;41.40
68556;HTU21D;55544;51.032;5.866;2023-04-03T10:26:45;12.25;41.74
68556;HTU21D;55544;51.032;5.866;2023-04-03T10:29:51;12.27;40.29
68556;HTU21D;55544;51.032;5.866;2023-04-03T10:35:37;11.99;40.28
68556;HTU21D;55544;51.032;5.866;2023-04-03T10:38:26;11.94;40.69
68556;HTU21D;55544;51.032;5.866;2023-04-03T10:43:44;12.27;39.52
68556;HTU21D;55544;51.032;5.866;2023-04-03T10:51:42;12.69;40.50
68556;HTU21D;55544;51.032;5.866;2023-04-03T10:54:41;12.77;40.31
68556;HTU21D;55544;51.032;5.866;2023-04-03T10:57:11;12.90;40.13
68556;HTU21D;55544;51.032;5.866;2023-04-03T11:00:03;13.02;39.81
68556;HTU21D;55544;51.032;5.866;2023-04-03T11:02:51;13.15;39.30
68556;HTU21D;55544;51.032;5.866;2023-04-03T11:05:43;13.25;38.78
68556;HTU21D;55544;51.032;5.866;2023-04-03T11:11:26;13.06;39.21
68556;HTU21D;55544;51.032;5.866;2023-04-03T11:13:55;13.25;39.70
68556;HTU21D;55544;51.032;5.866;2023-04-03T11:16:27;13.45;38.69
68556;HTU21D;55544;51.032;5.866;2023-04-03T11:21:45;13.68;37.62
68556;HTU21D;55544;51.032;5.866;2023-04-03T11:24:23;13.71;37.40
68556;HTU21D;55544;51.032;5.866;2023-04-03T11:26:53;13.78;38.00
68556;HTU21D;55544;51.032;5.866;2023-04-03T11:29:34;13.80;37.47
68556;HTU21D;55544;51.032;5.866;2023-04-03T11:32:29;13.82;37.53
68556;HTU21D;55544;51.032;5.866;2023-04-03T11:35:01;13.84;37.39
68556;HTU21D;55544;51.032;5.866;2023-04-03T11:37:35;13.88;37.58
68556;HTU21D;55544;51.032;5.866;2023-04-03T11:40:26;14.00;38.08
68556;HTU21D;55544;51.032;5.866;2023-04-03T11:47:59;14.41;37.33
68556;HTU21D;55544;51.032;5.866;2023-04-03T12:05:57;14.87;37.69
68556;HTU21D;55544;51.032;5.866;2023-04-03T12:14:01;15.16;36.69
68556;HTU21D;55544;51.032;5.866;2023-04-03T12:24:29;15.56;37.11
68556;HTU21D;55544;51.032;5.866;2023-04-03T12:27:03;15.73;36.28
68556;HTU21D;55544;51.032;5.866;2023-04-03T12:29:34;15.66;35.05
68556;HTU21D;55544;51.032;5.866;2023-04-03T12:35:24;15.74;36.51
68556;HTU21D;55544;51.032;5.866;2023-04-03T12:46:34;16.61;33.25
68556;HTU21D;55544;51.032;5.866;2023-04-03T12:49:18;16.74;32.97
68556;HTU21D;55544;51.032;5.866;2023-04-03T12:51:48;16.94;33.43
68556;HTU21D;55544;51.032;5.866;2023-04-03T12:54:23;16.98;32.34
68556;HTU21D;55544;51.032;5.866;2023-04-03T12:56:51;17.04;32.54
68556;HTU21D;55544;51.032;5.866;2023-04-03T12:59:21;16.98;31.66
68556;HTU21D;55544;51.032;5.866;2023-04-03T13:01:56;16.84;31.91
68556;HTU21D;55544;51.032;5.866;2023-04-03T13:04:23;16.74;31.77
68556;HTU21D;55544;51.032;5.866;2023-04-03T13:06:49;16.65;32.03
68556;HTU21D;55544;51.032;5.866;2023-04-03T13:09:25;16.66;32.48
68556;HTU21D;55544;51.032;5.866;2023-04-03T13:12:03;16.77;32.67
68556;HTU21D;55544;51.032;5.866;2023-04-03T13:14:29;16.84;33.51
68556;HTU21D;55544;51.032;5.866;2023-04-03T13:17:03;16.96;33.19
68556;HTU21D;55544;51.032;5.866;2023-04-03T13:19:30;17.10;32.37
68556;HTU21D;55544;51.032;5.866;2023-04-03T13:22:05;17.14;32.42
68556;HTU21D;55544;51.032;5.866;2023-04-03T13:24:35;17.31;33.19
68556;HTU21D;55544;51.032;5.866;2023-04-03T13:27:03;17.64;31.19
68556;HTU21D;55544;51.032;5.866;2023-04-03T13:29:35;17.76;30.41
68556;HTU21D;55544;51.032;5.866;2023-04-03T13:32:03;17.90;28.94
68556;HTU21D;55544;51.032;5.866;2023-04-03T13:34:50;17.92;30.42
68556;HTU21D;55544;51.032;5.866;2023-04-03T13:37:31;17.98;30.17
68556;HTU21D;55544;51.032;5.866;2023-04-03T13:40:00;18.09;29.64
68556;HTU21D;55544;51.032;5.866;2023-04-03T13:42:33;18.13;30.00
68556;HTU21D;55544;51.032;5.866;2023-04-03T13:45:29;18.19;29.31
68556;HTU21D;55544;51.032;5.866;2023-04-03T13:51:00;18.13;29.71
68556;HTU21D;55544;51.032;5.866;2023-04-03T13:53:28;18.17;29.22
68556;HTU21D;55544;51.032;5.866;2023-04-03T13:55:59;18.37;28.07
68556;HTU21D;55544;51.032;5.866;2023-04-03T13:58:28;18.56;28.01
68556;HTU21D;55544;51.032;5.866;2023-04-03T14:03:52;18.93;27.27
68556;HTU21D;55544;51.032;5.866;2023-04-03T14:06:18;18.88;27.95
68556;HTU21D;55544;51.032;5.866;2023-04-03T14:08:45;18.73;28.36
68556;HTU21D;55544;51.032;5.866;2023-04-03T14:11:18;18.56;28.58
68556;HTU21D;55544;51.032;5.866;2023-04-03T14:13:46;18.38;28.74
68556;HTU21D;55544;51.032;5.866;2023-04-03T14:16:15;18.35;28.96
68556;HTU21D;55544;51.032;5.866;2023-04-03T14:18:43;18.41;28.72
68556;HTU21D;55544;51.032;5.866;2023-04-03T14:21:12;18.57;27.66
68556;HTU21D;55544;51.032;5.866;2023-04-03T14:23:39;18.36;27.79
68556;HTU21D;55544;51.032;5.866;2023-04-03T14:26:14;18.04;27.83
68556;HTU21D;55544;51.032;5.866;2023-04-03T14:28:42;17.88;28.91
68556;HTU21D;55544;51.032;5.866;2023-04-03T14:31:10;17.75;28.48
68556;HTU21D;55544;51.032;5.866;2023-04-03T14:33:36;17.69;28.10
68556;HTU21D;55544;51.032;5.866;2023-04-03T14:36:12;17.85;26.07
68556;HTU21D;55544;51.032;5.866;2023-04-03T14:38:38;18.03;27.34
68556;HTU21D;55544;51.032;5.866;2023-04-03T14:41:04;18.05;27.62
68556;HTU21D;55544;51.032;5.866;2023-04-03T14:43:30;18.05;28.60
68556;HTU21D;55544;51.032;5.866;2023-04-03T14:45:56;18.02;28.62
68556;HTU21D;55544;51.032;5.866;2023-04-03T14:48:25;17.81;28.41
68556;HTU21D;55544;51.032;5.866;2023-04-03T14:50:53;17.73;28.17
68556;HTU21D;55544;51.032;5.866;2023-04-03T14:53:20;17.76;28.65
68556;HTU21D;55544;51.032;5.866;2023-04-03T14:55:52;17.82;29.00
68556;HTU21D;55544;51.032;5.866;2023-04-03T14:58:20;17.66;28.47
68556;HTU21D;55544;51.032;5.866;2023-04-03T15:00:46;17.53;28.83
68556;HTU21D;55544;51.032;5.866;2023-04-03T15:03:21;17.49;28.68
68556;HTU21D;55544;51.032;5.866;2023-04-03T15:05:49;17.65;29.00
68556;HTU21D;55544;51.032;5.866;2023-04-03T15:08:24;17.91;28.63
68556;HTU21D;55544;51.032;5.866;2023-04-03T15:10:51;18.06;28.79
68556;HTU21D;55544;51.032;5.866;2023-04-03T15:13:21;18.03;28.69
68556;HTU21D;55544;51.032;5.866;2023-04-03T15:15:48;17.97;29.17
68556;HTU21D;55544;51.032;5.866;2023-04-03T15:18:27;17.94;28.57
68556;HTU21D;55544;51.032;5.866;2023-04-03T15:20:53;17.89;28.84
68556;HTU21D;55544;51.032;5.866;2023-04-03T15:23:20;17.89;29.00
68556;HTU21D;55544;51.032;5.866;2023-04-03T15:25:53;17.87;28.07
68556;HTU21D;55544;51.032;5.866;2023-04-03T15:28:25;17.72;28.08
68556;HTU21D;55544;51.032;5.866;2023-04-03T15:30:53;17.65;28.68
68556;HTU21D;55544;51.032;5.866;2023-04-03T15:33:19;17.47;28.34
68556;HTU21D;55544;51.032;5.866;2023-04-03T15:35:45;17.31;28.94
68556;HTU21D;55544;51.032;5.866;2023-04-03T15:38:11;17.26;29.32
68556;HTU21D;55544;51.032;5.866;2023-04-03T15:40:37;17.31;28.64
68556;HTU21D;55544;51.032;5.866;2023-04-03T15:43:05;17.30;28.89
68556;HTU21D;55544;51.032;5.866;2023-04-03T15:45:33;17.20;29.06
68556;HTU21D;55544;51.032;5.866;2023-04-03T15:48:00;17.10;28.77
68556;HTU21D;55544;51.032;5.866;2023-04-03T15:50:26;16.99;29.00
68556;HTU21D;55544;51.032;5.866;2023-04-03T15:52:52;17.02;28.67
68556;HTU21D;55544;51.032;5.866;2023-04-03T15:55:22;16.99;28.90
68556;HTU21D;55544;51.032;5.866;2023-04-03T15:57:48;16.81;28.96
68556;HTU21D;55544;51.032;5.866;2023-04-03T16:00:15;16.70;29.65
68556;HTU21D;55544;51.032;5.866;2023-04-03T16:02:42;16.64;29.80
68556;HTU21D;55544;51.032;5.866;2023-04-03T16:05:09;16.59;29.74
68556;HTU21D;55544;51.032;5.866;2023-04-03T16:07:38;16.50;29.55
68556;HTU21D;55544;51.032;5.866;2023-04-03T16:10:04;16.36;29.56
68556;HTU21D;55544;51.032;5.866;2023-04-03T16:12:30;16.25;29.77
68556;HTU21D;55544;51.032;5.866;2023-04-03T16:14:56;16.19;30.22
68556;HTU21D;55544;51.032;5.866;2023-04-03T16:17:22;16.10;30.41
68556;HTU21D;55544;51.032;5.866;2023-04-03T16:19:48;16.00;30.66
68556;HTU21D;55544;51.032;5.866;2023-04-03T16:22:13;15.86;30.57
68556;HTU21D;55544;51.032;5.866;2023-04-03T16:24:39;15.68;30.48
68556;HTU21D;55544;51.032;5.866;2023-04-03T16:27:05;15.57;31.12
68556;HTU21D;55544;51.032;5.866;2023-04-03T16:29:31;15.53;31.71
68556;HTU21D;55544;51.032;5.866;2023-04-03T16:31:58;15.44;31.36
68556;HTU21D;55544;51.032;5.866;2023-04-03T16:34:24;15.42;31.14
68556;HTU21D;55544;51.032;5.866;2023-04-03T16:36:51;15.39;31.50
68556;HTU21D;55544;51.032;5.866;2023-04-03T16:39:18;15.31;31.30
68556;HTU21D;55544;51.032;5.866;2023-04-03T16:41:44;15.26;31.64
68556;HTU21D;55544;51.032;5.866;2023-04-03T16:44:11;15.24;32.03
68556;HTU21D;55544;51.032;5.866;2023-04-03T16:46:37;15.21;31.86
68556;HTU21D;55544;51.032;5.866;2023-04-03T16:49:03;15.23;31.83
68556;HTU21D;55544;51.032;5.866;2023-04-03T16:51:29;15.15;31.51
68556;HTU21D;55544;51.032;5.866;2023-04-03T16:53:55;15.04;31.88
68556;HTU21D;55544;51.032;5.866;2023-04-03T16:56:21;15.03;32.31
68556;HTU21D;55544;51.032;5.866;2023-04-03T16:58:47;15.02;32.48
68556;HTU21D;55544;51.032;5.866;2023-04-03T17:01:16;14.92;32.15
68556;HTU21D;55544;51.032;5.866;2023-04-03T17:03:42;14.70;31.99
68556;HTU21D;55544;51.032;5.866;2023-04-03T17:06:11;14.48;32.40
68556;HTU21D;55544;51.032;5.866;2023-04-03T17:08:46;14.35;32.69
68556;HTU21D;55544;51.032;5.866;2023-04-03T17:11:29;14.18;32.92
68556;HTU21D;55544;51.032;5.866;2023-04-03T17:13:55;14.07;33.26
68556;HTU21D;55544;51.032;5.866;2023-04-03T17:16:21;14.03;33.44
68556;HTU21D;55544;51.032;5.866;2023-04-03T17:18:47;13.95;33.47